Time;durP1;ratioP1;P1;durP2;ratioP2;P2;SDS_P1;SDS_P2;PMS_P1;PMS_P2;Temp;Humidity;BMP_temperature;BMP_pressure;BME280_temperature;BME280_humidity;BME280_pressure;Samples;Min_cycle;Max_cycle;Signal;HPM_P1;HPM_P2
2023/06/25 00:00:29;;;;;;;4.43;3.75;;;22.80;98.60;;;;;;7390142;19;20151;-72
2023/06/25 00:02:55;;;;;;;6.30;3.97;;;22.80;98.60;;;;;;7389612;19;20585;-73
2023/06/25 00:05:21;;;;;;;5.18;3.97;;;22.70;99.20;;;;;;7388212;19;20154;-74
2023/06/25 00:07:47;;;;;;;6.05;4.15;;;22.50;99.40;;;;;;7390320;19;20154;-73
2023/06/25 00:10:12;;;;;;;6.10;4.38;;;22.50;99.60;;;;;;7388917;19;20613;-74
2023/06/25 00:12:38;;;;;;;5.95;4.40;;;22.50;99.70;;;;;;7386560;19;20139;-72
2023/06/25 00:15:05;;;;;;;5.70;3.78;;;22.70;99.70;;;;;;7389514;19;20138;-73
2023/06/25 00:17:30;;;;;;;5.43;4.38;;;22.20;99.90;;;;;;7389108;19;20143;-73
2023/06/25 00:19:57;;;;;;;6.20;3.75;;;22.00;99.90;;;;;;7389960;19;20157;-74
2023/06/25 00:22:23;;;;;;;6.18;4.15;;;22.00;99.90;;;;;;7391082;19;20480;-73
2023/06/25 00:24:50;;;;;;;4.88;3.80;;;22.10;99.90;;;;;;7388406;19;20149;-74
2023/06/25 00:27:16;;;;;;;6.10;4.32;;;21.80;99.90;;;;;;7389029;19;20174;-73
2023/06/25 00:29:42;;;;;;;5.55;3.95;;;21.90;99.90;;;;;;7388150;19;20477;-73
2023/06/25 00:32:08;;;;;;;7.65;4.95;;;21.80;99.90;;;;;;7387869;19;20159;-73
2023/06/25 00:34:41;;;;;;;7.90;5.80;;;21.60;99.90;;;;;;7387764;19;20162;-73
2023/06/25 00:37:16;;;;;;;6.88;5.30;;;21.60;99.90;;;;;;7388197;19;20163;-74
2023/06/25 00:39:46;;;;;;;6.72;4.90;;;21.70;99.90;;;;;;7390421;19;20204;-73
2023/06/25 00:42:12;;;;;;;9.00;5.03;;;21.70;99.90;;;;;;7388860;19;20159;-73
2023/06/25 00:44:42;;;;;;;6.63;5.25;;;21.70;99.90;;;;;;7383998;19;20134;-73
2023/06/25 00:47:13;;;;;;;6.55;4.97;;;21.80;99.90;;;;;;7384312;19;20174;-75
2023/06/25 00:49:46;;;;;;;7.05;5.45;;;21.70;99.90;;;;;;7390500;19;20135;-74
2023/06/25 00:52:13;;;;;;;5.47;4.40;;;21.80;99.90;;;;;;7386399;19;20134;-75
2023/06/25 00:54:40;;;;;;;7.05;4.85;;;21.50;99.90;;;;;;7389553;19;20138;-74
2023/06/25 00:57:08;;;;;;;5.50;4.35;;;21.50;99.90;;;;;;7388578;19;20155;-74
2023/06/25 00:59:40;;;;;;;9.02;5.78;;;21.60;99.90;;;;;;7388040;19;20474;-74
2023/06/25 01:02:26;;;;;;;7.07;5.32;;;21.50;99.90;;;;;;7388962;19;20158;-75
2023/06/25 01:05:05;;;;;;;6.97;4.90;;;21.50;99.90;;;;;;7389696;19;20139;-75
2023/06/25 01:07:32;;;;;;;8.77;5.43;;;21.70;99.90;;;;;;7387595;19;20150;-73
2023/06/25 01:09:58;;;;;;;8.00;5.72;;;21.90;99.90;;;;;;7388433;19;20146;-75
2023/06/25 01:12:24;;;;;;;7.80;5.43;;;21.90;99.90;;;;;;7389819;19;20669;-74
2023/06/25 01:14:50;;;;;;;7.60;5.80;;;21.80;99.90;;;;;;7389090;19;20134;-75
2023/06/25 01:17:16;;;;;;;7.15;5.55;;;21.90;99.90;;;;;;7388047;19;20176;-74
2023/06/25 01:19:42;;;;;;;7.28;5.60;;;21.90;99.90;;;;;;7388056;19;20229;-74
2023/06/25 01:22:09;;;;;;;8.38;5.60;;;21.70;99.90;;;;;;7387911;19;20142;-75
2023/06/25 01:24:35;;;;;;;7.93;5.75;;;21.50;99.90;;;;;;7387535;19;20179;-74
2023/06/25 01:27:04;;;;;;;8.38;5.35;;;21.60;99.90;;;;;;7387825;19;20171;-75
2023/06/25 01:29:34;;;;;;;10.23;5.70;;;21.60;99.90;;;;;;7390911;19;20150;-74
2023/06/25 01:32:00;;;;;;;8.65;6.63;;;21.80;99.90;;;;;;7389196;19;20139;-76
2023/06/25 01:34:26;;;;;;;10.23;6.72;;;21.70;99.90;;;;;;7391142;19;20143;-73
2023/06/25 01:36:52;;;;;;;10.13;6.50;;;21.60;99.90;;;;;;7388414;19;20138;-74
2023/06/25 01:39:19;;;;;;;9.77;7.95;;;21.70;99.90;;;;;;7390136;19;20138;-75
2023/06/25 01:41:46;;;;;;;11.30;7.63;;;21.70;99.90;;;;;;7388657;19;20138;-75
2023/06/25 01:44:16;;;;;;;10.90;7.95;;;21.80;99.90;;;;;;7389176;19;20490;-75
2023/06/25 01:46:42;;;;;;;12.60;7.45;;;21.60;99.90;;;;;;7388611;19;20476;-74
2023/06/25 01:49:08;;;;;;;10.75;8.18;;;21.60;99.90;;;;;;7390189;19;20151;-75
2023/06/25 01:51:33;;;;;;;9.82;7.00;;;21.40;99.90;;;;;;7380167;19;20131;-74
2023/06/25 01:54:00;;;;;;;9.38;6.75;;;21.30;99.90;;;;;;7387651;19;20130;-75
2023/06/25 01:56:25;;;;;;;9.18;6.57;;;21.30;99.90;;;;;;7385950;19;20590;-74
2023/06/25 01:58:53;;;;;;;9.35;7.25;;;21.40;99.90;;;;;;7389450;19;20149;-75
2023/06/25 02:01:22;;;;;;;8.80;6.60;;;21.10;99.90;;;;;;7389983;19;20806;-75
2023/06/25 02:03:48;;;;;;;9.30;6.18;;;21.00;99.90;;;;;;7388688;19;20152;-74
2023/06/25 02:06:14;;;;;;;10.45;6.25;;;21.10;99.90;;;;;;7388230;19;20134;-75
2023/06/25 02:08:41;;;;;;;8.15;5.95;;;21.10;99.90;;;;;;7391629;19;20161;-75
2023/06/25 02:11:07;;;;;;;7.47;5.40;;;21.20;99.90;;;;;;7392320;19;20141;-75
2023/06/25 02:13:34;;;;;;;6.65;5.32;;;21.30;99.90;;;;;;7395323;19;20130;-75
2023/06/25 02:16:03;;;;;;;11.95;5.25;;;21.30;99.90;;;;;;7388485;19;20138;-75
2023/06/25 02:18:31;;;;;;;6.10;4.47;;;21.40;99.90;;;;;;7395100;19;20130;-74
2023/06/25 02:20:59;;;;;;;6.05;4.47;;;21.50;99.90;;;;;;7391991;19;20647;-74
2023/06/25 02:23:24;;;;;;;5.95;4.60;;;21.40;99.90;;;;;;7391516;19;20131;-75
2023/06/25 02:25:51;;;;;;;6.70;4.70;;;21.20;99.90;;;;;;7387884;19;20161;-76
2023/06/25 02:28:17;;;;;;;5.22;4.07;;;21.30;99.90;;;;;;7388942;19;20139;-75
2023/06/25 02:30:43;;;;;;;5.88;3.72;;;21.30;99.90;;;;;;7386318;19;20134;-75
2023/06/25 02:33:09;;;;;;;5.13;4.03;;;21.20;99.90;;;;;;7387833;19;20664;-76
2023/06/25 02:35:35;;;;;;;6.15;3.85;;;20.90;99.90;;;;;;7391774;19;20149;-74
2023/06/25 02:38:00;;;;;;;4.63;4.13;;;21.10;99.90;;;;;;7394791;19;20135;-75
2023/06/25 02:40:29;;;;;;;4.70;3.88;;;21.10;99.90;;;;;;7393503;19;20130;-74
2023/06/25 02:42:56;;;;;;;6.10;3.85;;;21.10;99.90;;;;;;7393209;19;20202;-74
2023/06/25 02:45:22;;;;;;;5.63;3.92;;;20.70;99.90;;;;;;7391522;19;20151;-75
2023/06/25 02:47:48;;;;;;;6.57;4.55;;;20.80;99.90;;;;;;7392050;19;20165;-75
2023/06/25 02:50:14;;;;;;;6.68;4.55;;;21.00;99.90;;;;;;7394907;19;20139;-75
2023/06/25 02:52:40;;;;;;;7.03;4.50;;;21.10;99.90;;;;;;7388024;19;20138;-75
2023/06/25 02:55:06;;;;;;;4.57;4.03;;;21.20;99.90;;;;;;7392669;19;20471;-75
2023/06/25 02:57:32;;;;;;;5.30;4.03;;;21.20;99.90;;;;;;7393107;19;20548;-76
2023/06/25 02:59:59;;;;;;;8.43;4.10;;;21.30;99.90;;;;;;7391661;19;20163;-75
2023/06/25 03:02:26;;;;;;;5.55;3.78;;;21.30;99.90;;;;;;7392896;19;20162;-75
2023/06/25 03:04:52;;;;;;;5.75;4.20;;;21.30;99.90;;;;;;7391771;19;20147;-75
2023/06/25 03:07:18;;;;;;;6.70;4.55;;;21.20;99.90;;;;;;7392561;19;20138;-75
2023/06/25 03:09:44;;;;;;;8.18;5.63;;;21.30;99.90;;;;;;7391777;19;20158;-75
2023/06/25 03:12:10;;;;;;;5.80;4.68;;;21.20;99.90;;;;;;7393100;19;20160;-75
2023/06/25 03:14:36;;;;;;;6.60;4.40;;;20.90;99.90;;;;;;7391166;19;20138;-74
2023/06/25 03:17:03;;;;;;;6.00;4.72;;;20.90;99.90;;;;;;7390882;19;20478;-75
2023/06/25 03:19:29;;;;;;;6.97;4.35;;;20.90;99.90;;;;;;7391843;19;20140;-76
2023/06/25 03:21:55;;;;;;;4.32;3.92;;;20.80;99.90;;;;;;7393369;19;20686;-76
2023/06/25 03:24:21;;;;;;;6.30;4.10;;;20.90;99.90;;;;;;7392201;19;20164;-75
2023/06/25 03:26:47;;;;;;;5.28;4.15;;;21.00;99.90;;;;;;7393294;19;20146;-75
2023/06/25 03:29:13;;;;;;;6.38;4.50;;;21.10;99.90;;;;;;7392526;19;20213;-75
2023/06/25 03:31:38;;;;;;;8.23;4.82;;;21.10;99.90;;;;;;7391913;19;20213;-75
2023/06/25 03:34:04;;;;;;;6.90;4.47;;;21.00;99.90;;;;;;7391383;19;20151;-76
2023/06/25 03:36:30;;;;;;;5.70;4.93;;;21.00;99.90;;;;;;7391009;19;20246;-75
2023/06/25 03:38:57;;;;;;;8.10;4.88;;;21.00;99.90;;;;;;7391702;19;20131;-76
2023/06/25 03:41:23;;;;;;;7.32;5.70;;;21.00;99.90;;;;;;7390678;19;20139;-75
2023/06/25 03:43:50;;;;;;;6.68;4.93;;;21.10;99.90;;;;;;7390061;19;20629;-74
2023/06/25 03:46:16;;;;;;;7.20;4.90;;;21.00;99.90;;;;;;7388614;19;20168;-75
2023/06/25 03:48:44;;;;;;;6.88;5.15;;;21.00;99.90;;;;;;7390989;19;20559;-76
2023/06/25 03:51:11;;;;;;;8.35;5.45;;;21.10;99.90;;;;;;7390763;19;20222;-76
2023/06/25 03:53:40;;;;;;;6.45;4.35;;;21.00;99.90;;;;;;7389871;19;20214;-76
2023/06/25 03:56:06;;;;;;;5.75;4.15;;;20.90;99.90;;;;;;7391731;19;20142;-74
2023/06/25 03:58:33;;;;;;;4.05;3.33;;;20.80;99.90;;;;;;7391744;19;20137;-75
2023/06/25 04:00:59;;;;;;;4.45;3.38;;;20.80;99.90;;;;;;7390792;19;20158;-75
2023/06/25 04:03:25;;;;;;;3.58;3.20;;;20.60;99.90;;;;;;7391705;19;20154;-75
2023/06/25 04:05:51;;;;;;;4.35;3.45;;;20.70;99.90;;;;;;7388839;19;20138;-75
2023/06/25 04:08:17;;;;;;;4.47;3.60;;;20.80;99.90;;;;;;7391083;19;20138;-75
2023/06/25 04:10:42;;;;;;;7.00;4.32;;;20.90;99.90;;;;;;7389871;19;20155;-74
2023/06/25 04:13:08;;;;;;;7.22;4.53;;;20.90;99.90;;;;;;7391569;19;20202;-75
2023/06/25 04:15:34;;;;;;;7.18;4.97;;;20.90;99.90;;;;;;7388329;19;20153;-74
2023/06/25 04:18:00;;;;;;;6.47;4.60;;;20.90;99.90;;;;;;7390481;19;20543;-75
2023/06/25 04:20:27;;;;;;;7.40;5.20;;;20.90;99.90;;;;;;7390968;19;20262;-75
2023/06/25 04:22:54;;;;;;;6.50;5.22;;;20.90;99.90;;;;;;7389085;19;20145;-75
2023/06/25 04:25:20;;;;;;;7.82;4.80;;;20.80;99.90;;;;;;7388444;19;20497;-73
2023/06/25 04:27:46;;;;;;;7.80;5.32;;;20.80;99.90;;;;;;7390465;19;20136;-75
2023/06/25 04:30:12;;;;;;;7.38;4.95;;;20.80;99.90;;;;;;7389885;19;20214;-75
2023/06/25 04:32:38;;;;;;;8.32;5.03;;;20.70;99.90;;;;;;7388244;19;20135;-75
2023/06/25 04:35:04;;;;;;;5.88;4.43;;;20.80;99.90;;;;;;7389407;19;20173;-75
2023/06/25 04:37:29;;;;;;;7.05;4.50;;;20.90;99.90;;;;;;7390137;19;20130;-74
2023/06/25 04:39:59;;;;;;;6.95;4.88;;;20.90;99.90;;;;;;7388236;19;20226;-75
2023/06/25 04:42:25;;;;;;;8.80;5.13;;;20.80;99.90;;;;;;7390641;19;20139;-75
2023/06/25 04:44:54;;;;;;;8.15;5.18;;;20.80;99.90;;;;;;7391225;19;20206;-75
2023/06/25 04:47:20;;;;;;;6.70;4.38;;;20.90;99.90;;;;;;7385646;19;20178;-74
2023/06/25 04:49:46;;;;;;;6.65;5.10;;;20.80;99.90;;;;;;7390870;19;20484;-74
2023/06/25 04:52:18;;;;;;;5.20;4.45;;;20.60;99.90;;;;;;7389712;19;20131;-74
2023/06/25 04:54:44;;;;;;;6.80;4.70;;;20.50;99.90;;;;;;7388752;19;20160;-76
2023/06/25 04:57:10;;;;;;;6.15;4.60;;;20.40;99.90;;;;;;7386939;19;20177;-75
2023/06/25 04:59:36;;;;;;;6.03;4.75;;;20.70;99.90;;;;;;7388218;19;20210;-75
2023/06/25 05:02:01;;;;;;;5.88;4.47;;;20.80;99.90;;;;;;7392786;19;20130;-74
2023/06/25 05:04:27;;;;;;;7.35;4.60;;;20.80;99.90;;;;;;7386596;19;20134;-74
2023/06/25 05:06:53;;;;;;;7.45;4.63;;;21.00;99.90;;;;;;7388172;19;20138;-75
2023/06/25 05:09:18;;;;;;;5.90;4.35;;;21.10;99.90;;;;;;7388585;19;20153;-75
2023/06/25 05:11:44;;;;;;;6.28;4.75;;;21.10;99.90;;;;;;7388628;19;20595;-75
2023/06/25 05:14:10;;;;;;;6.38;4.75;;;21.10;99.90;;;;;;7387456;19;20162;-74
2023/06/25 05:16:36;;;;;;;6.10;4.38;;;21.00;99.90;;;;;;7387777;19;20150;-75
2023/06/25 05:19:01;;;;;;;5.30;4.40;;;20.90;99.90;;;;;;7389675;19;20147;-75
2023/06/25 05:21:27;;;;;;;6.47;4.55;;;20.90;99.90;;;;;;7389787;19;20139;-75
2023/06/25 05:23:58;;;;;;;4.50;3.92;;;20.90;99.90;;;;;;7386126;19;20150;-75
2023/06/25 05:26:24;;;;;;;5.93;4.72;;;20.90;99.90;;;;;;7385497;19;20135;-75
2023/06/25 05:28:50;;;;;;;8.25;4.75;;;20.80;99.90;;;;;;7387243;19;20151;-74
2023/06/25 05:31:15;;;;;;;6.68;4.55;;;20.90;99.90;;;;;;7387919;19;20599;-74
2023/06/25 05:33:41;;;;;;;6.57;5.00;;;20.90;99.90;;;;;;7389233;19;20138;-75
2023/06/25 05:36:09;;;;;;;6.38;4.63;;;20.90;99.90;;;;;;7387012;19;20586;-75
2023/06/25 05:38:35;;;;;;;6.18;4.55;;;21.00;99.90;;;;;;7387038;19;20142;-73
2023/06/25 05:41:01;;;;;;;7.18;5.10;;;21.10;99.90;;;;;;7387587;19;20144;-75
2023/06/25 05:43:26;;;;;;;6.63;4.15;;;21.10;99.90;;;;;;7387355;19;20156;-75
2023/06/25 05:45:52;;;;;;;5.32;4.22;;;21.10;99.90;;;;;;7380211;19;20178;-75
2023/06/25 05:48:18;;;;;;;5.55;4.32;;;21.10;99.90;;;;;;7386538;19;20154;-74
2023/06/25 05:50:44;;;;;;;6.45;3.50;;;21.20;99.90;;;;;;7387120;19;20238;-75
2023/06/25 05:53:09;;;;;;;5.03;4.35;;;21.20;99.90;;;;;;7386140;19;20142;-74
2023/06/25 05:55:35;;;;;;;6.03;4.45;;;21.30;99.90;;;;;;7382824;19;20262;-74
2023/06/25 05:58:01;;;;;;;5.53;4.40;;;21.40;99.90;;;;;;7386795;19;20606;-74
2023/06/25 06:00:27;;;;;;;6.32;4.40;;;21.40;99.90;;;;;;7386969;19;20150;-75
2023/06/25 06:02:52;;;;;;;5.72;4.38;;;21.50;99.90;;;;;;7383554;19;20145;-77
2023/06/25 06:05:18;;;;;;;6.35;4.10;;;21.50;99.90;;;;;;7386765;19;20539;-75
2023/06/25 06:07:44;;;;;;;5.35;4.00;;;21.60;99.90;;;;;;7384683;19;20167;-74
2023/06/25 06:10:12;;;;;;;5.47;3.92;;;21.70;99.90;;;;;;7387453;19;20137;-74
2023/06/25 06:12:37;;;;;;;5.03;3.67;;;21.80;99.90;;;;;;7387019;19;20142;-74
2023/06/25 06:15:03;;;;;;;5.20;4.38;;;22.70;99.90;;;;;;7386536;19;20515;-75
2023/06/25 06:17:29;;;;;;;5.05;3.72;;;24.90;99.90;;;;;;7384304;19;20154;-75
2023/06/25 06:19:55;;;;;;;4.72;3.80;;;26.80;99.90;;;;;;7388468;19;20651;-74
2023/06/25 06:22:20;;;;;;;4.55;3.55;;;28.30;98.90;;;;;;7386091;19;20159;-75
2023/06/25 06:24:46;;;;;;;4.95;3.78;;;29.20;96.40;;;;;;7385328;19;20162;-74
2023/06/25 06:27:12;;;;;;;4.28;3.35;;;30.30;94.00;;;;;;7387297;19;20145;-77
2023/06/25 06:29:38;;;;;;;4.32;3.20;;;31.50;91.40;;;;;;7386272;19;20139;-76
2023/06/25 06:32:04;;;;;;;3.53;3.17;;;32.10;88.30;;;;;;7388326;19;20237;-76
2023/06/25 06:34:30;;;;;;;4.95;3.53;;;32.90;84.40;;;;;;7386137;19;20144;-75
2023/06/25 06:36:55;;;;;;;3.72;3.13;;;33.50;80.60;;;;;;7386029;19;20162;-76
2023/06/25 06:39:21;;;;;;;4.93;4.07;;;34.30;76.40;;;;;;7384526;19;20545;-76
2023/06/25 06:41:47;;;;;;;4.43;3.78;;;34.80;71.70;;;;;;7386002;19;20127;-75
2023/06/25 06:44:17;;;;;;;4.43;3.50;;;34.80;69.70;;;;;;7386265;19;20182;-76
2023/06/25 06:46:44;;;;;;;4.30;3.78;;;34.50;69.20;;;;;;7382411;19;20150;-76
2023/06/25 06:49:10;;;;;;;5.10;3.80;;;33.70;69.20;;;;;;7386507;19;20131;-78
2023/06/25 06:51:37;;;;;;;5.18;3.70;;;33.60;69.80;;;;;;7384912;19;20142;-80
2023/06/25 06:54:04;;;;;;;5.05;3.25;;;33.00;70.20;;;;;;7386757;19;20142;-81
2023/06/25 06:56:30;;;;;;;3.95;3.55;;;32.60;70.80;;;;;;7383590;19;21153;-79
2023/06/25 06:58:56;;;;;;;3.50;3.03;;;32.20;71.40;;;;;;7385090;19;20598;-79
2023/06/25 07:01:25;;;;;;;4.30;3.47;;;31.80;71.50;;;;;;7387025;19;20127;-78
2023/06/25 07:03:51;;;;;;;4.68;3.67;;;31.40;72.90;;;;;;7384620;19;20150;-79
2023/06/25 07:06:16;;;;;;;3.92;3.38;;;31.50;72.30;;;;;;7382735;19;20131;-78
2023/06/25 07:08:42;;;;;;;4.20;3.45;;;31.70;71.70;;;;;;7384707;19;20134;-79
2023/06/25 07:11:08;;;;;;;4.63;3.95;;;31.40;70.90;;;;;;7384344;19;20138;-79
2023/06/25 07:13:34;;;;;;;5.88;4.03;;;30.70;71.20;;;;;;7386601;19;20602;-77
2023/06/25 07:16:01;;;;;;;5.18;3.80;;;30.50;72.30;;;;;;7382862;19;20135;-79
2023/06/25 07:18:27;;;;;;;5.25;4.15;;;30.90;72.30;;;;;;7385290;19;20138;-78
2023/06/25 07:20:53;;;;;;;4.25;3.65;;;31.00;72.00;;;;;;7385947;19;20186;-78
2023/06/25 07:23:19;;;;;;;4.88;3.78;;;30.90;72.90;;;;;;7391835;19;20142;-78
2023/06/25 07:25:44;;;;;;;4.75;3.60;;;30.30;73.30;;;;;;7389047;19;20472;-78
2023/06/25 07:28:10;;;;;;;5.90;3.90;;;30.00;74.90;;;;;;7393529;19;20605;-78
2023/06/25 07:30:37;;;;;;;4.28;3.88;;;30.00;75.40;;;;;;7391536;19;20139;-78
2023/06/25 07:33:03;;;;;;;4.57;4.05;;;30.10;74.90;;;;;;7389687;19;20180;-77
2023/06/25 07:35:32;;;;;;;5.97;4.55;;;30.10;74.80;;;;;;7391915;19;20555;-79
2023/06/25 07:37:57;;;;;;;4.70;3.88;;;30.10;75.20;;;;;;7390933;19;20614;-78
2023/06/25 07:40:23;;;;;;;6.63;4.53;;;30.00;75.10;;;;;;7389401;19;20214;-78
2023/06/25 07:42:49;;;;;;;5.13;4.13;;;30.10;75.40;;;;;;7391161;19;20621;-78
2023/06/25 07:45:15;;;;;;;5.18;4.60;;;30.20;74.60;;;;;;7388818;19;20142;-81
2023/06/25 07:47:40;;;;;;;5.20;3.83;;;30.30;74.40;;;;;;7392265;19;20151;-78
2023/06/25 07:50:07;;;;;;;5.97;4.65;;;30.40;74.10;;;;;;7390946;19;20214;-77
2023/06/25 07:52:32;;;;;;;5.88;3.78;;;30.20;74.10;;;;;;7391064;19;20147;-77
2023/06/25 07:54:58;;;;;;;4.65;3.85;;;30.10;74.70;;;;;;7388778;19;21399;-77
2023/06/25 07:57:24;;;;;;;6.13;4.20;;;30.30;74.70;;;;;;7392919;19;20622;-79
2023/06/25 07:59:50;;;;;;;6.35;3.97;;;30.50;74.00;;;;;;7389368;19;20131;-77
2023/06/25 08:02:15;;;;;;;5.57;4.50;;;30.00;74.40;;;;;;7390537;19;20148;-77
2023/06/25 08:04:41;;;;;;;6.93;4.22;;;30.00;75.10;;;;;;7388558;19;20170;-78
2023/06/25 08:07:07;;;;;;;5.03;4.30;;;30.10;74.60;;;;;;7389868;19;20142;-76
2023/06/25 08:09:33;;;;;;;6.78;4.53;;;30.30;73.50;;;;;;7390277;19;20134;-77
2023/06/25 08:11:58;;;;;;;5.88;4.50;;;30.40;72.30;;;;;;7388655;19;20253;-78
2023/06/25 08:14:24;;;;;;;5.70;4.72;;;30.60;71.90;;;;;;7387591;19;20162;-77
2023/06/25 08:16:50;;;;;;;5.15;4.50;;;30.70;71.70;;;;;;7393649;19;20175;-77
2023/06/25 08:19:15;;;;;;;5.82;4.95;;;30.60;71.10;;;;;;7391187;19;20594;-80
2023/06/25 08:21:41;;;;;;;4.90;4.43;;;30.40;71.10;;;;;;7388817;19;20165;-79
2023/06/25 08:24:07;;;;;;;5.85;5.25;;;30.40;71.00;;;;;;7391343;19;20134;-77
2023/06/25 08:26:33;;;;;;;4.93;4.43;;;30.60;70.80;;;;;;7384291;19;20144;-78
2023/06/25 08:28:58;;;;;;;5.53;4.60;;;30.80;70.60;;;;;;7388904;19;20142;-75
2023/06/25 08:31:24;;;;;;;5.95;4.70;;;30.80;69.80;;;;;;7389689;19;20689;-77
2023/06/25 08:33:50;;;;;;;6.78;5.38;;;31.00;69.10;;;;;;7388891;19;20134;-78
2023/06/25 08:36:17;;;;;;;8.57;5.10;;;30.90;68.80;;;;;;7389314;19;20134;-76
2023/06/25 08:38:43;;;;;;;7.32;5.32;;;30.70;67.80;;;;;;7389641;19;20135;-78
2023/06/25 08:41:08;;;;;;;6.72;4.93;;;30.90;67.90;;;;;;7388814;19;20134;-77
2023/06/25 08:43:34;;;;;;;5.50;4.60;;;30.50;67.60;;;;;;7388728;19;20161;-77
2023/06/25 08:46:02;;;;;;;7.65;5.32;;;30.10;68.50;;;;;;7385731;19;20613;-77
2023/06/25 08:48:32;;;;;;;5.95;4.85;;;30.20;69.60;;;;;;7385477;19;20153;-78
2023/06/25 08:51:08;;;;;;;6.35;4.93;;;30.70;68.80;;;;;;7386705;19;20126;-75
2023/06/25 08:53:35;;;;;;;6.55;5.10;;;30.80;68.60;;;;;;7387213;19;20182;-77
2023/06/25 08:56:03;;;;;;;5.00;4.43;;;30.90;67.70;;;;;;7389367;19;20131;-76
2023/06/25 08:58:29;;;;;;;6.70;4.88;;;30.80;67.40;;;;;;7388376;19;20159;-76
2023/06/25 09:00:55;;;;;;;5.72;5.10;;;30.50;67.40;;;;;;7387604;19;20983;-76
2023/06/25 09:03:21;;;;;;;5.32;4.30;;;30.10;67.90;;;;;;7385282;19;20156;-81
2023/06/25 09:05:54;;;;;;;6.82;4.63;;;29.80;65.80;;;;;;7385562;19;20174;-81
2023/06/25 09:08:22;;;;;;;4.97;4.38;;;29.50;66.10;;;;;;7385792;19;20123;-81
2023/06/25 09:10:53;;;;;;;6.03;4.10;;;29.30;66.50;;;;;;7387830;19;20156;-78
2023/06/25 09:13:24;;;;;;;4.55;3.67;;;29.10;67.70;;;;;;7387202;19;20525;-79
2023/06/25 09:15:50;;;;;;;6.15;4.10;;;29.10;65.30;;;;;;7385554;19;20584;-77
2023/06/25 09:18:21;;;;;;;5.78;4.63;;;29.20;65.10;;;;;;7391353;19;20157;-78
2023/06/25 09:20:50;;;;;;;6.05;4.72;;;29.30;65.10;;;;;;7389012;19;20131;-78
2023/06/25 09:23:20;;;;;;;5.28;4.07;;;29.20;65.40;;;;;;7390212;19;20198;-77
2023/06/25 09:25:46;;;;;;;7.55;4.40;;;29.10;65.50;;;;;;7384615;19;20674;-74
2023/06/25 09:28:12;;;;;;;4.97;4.05;;;29.00;65.10;;;;;;7389719;19;20619;-81
2023/06/25 09:30:42;;;;;;;5.80;4.30;;;28.90;66.90;;;;;;7387786;19;20130;-77
2023/06/25 09:33:12;;;;;;;5.25;4.32;;;29.10;64.30;;;;;;7390469;19;20642;-77
2023/06/25 09:35:38;;;;;;;4.57;3.88;;;29.20;63.10;;;;;;7389746;19;20135;-79
2023/06/25 09:38:04;;;;;;;4.95;4.45;;;29.10;63.40;;;;;;7386193;19;20390;-80
2023/06/25 09:40:32;;;;;;;5.45;4.60;;;28.90;63.10;;;;;;7384550;19;20131;-81
2023/06/25 09:42:59;;;;;;;6.45;3.90;;;28.70;64.00;;;;;;7387511;19;20153;-79
2023/06/25 09:45:27;;;;;;;7.00;4.35;;;28.80;63.70;;;;;;7387731;19;20831;-80
2023/06/25 09:47:54;;;;;;;5.22;4.40;;;28.90;64.80;;;;;;7388475;19;20197;-81
2023/06/25 09:50:30;;;;;;;5.63;4.28;;;29.10;64.40;;;;;;7388544;19;20146;-80
2023/06/25 09:52:58;;;;;;;4.63;3.97;;;29.40;63.50;;;;;;7388834;19;20134;-81
2023/06/25 09:55:27;;;;;;;4.20;3.53;;;29.50;62.20;;;;;;7389373;19;20501;-80
2023/06/25 09:57:54;;;;;;;4.68;4.07;;;29.70;60.90;;;;;;7388999;19;20143;-79
2023/06/25 10:00:22;;;;;;;6.35;4.68;;;29.90;60.00;;;;;;7390641;19;20627;-79
2023/06/25 10:02:49;;;;;;;4.40;4.00;;;30.00;59.30;;;;;;7387467;19;20135;-80
2023/06/25 10:06:05;;;;;;;4.80;4.18;;;29.90;59.10;;;;;;7362062;19;20122;-78
2023/06/25 10:08:33;;;;;;;4.72;4.03;;;29.80;60.30;;;;;;7380059;19;20162;-79
2023/06/25 10:11:00;;;;;;;6.28;4.60;;;29.60;60.00;;;;;;7382133;19;20134;-78
2023/06/25 10:13:26;;;;;;;5.07;4.20;;;29.50;59.70;;;;;;7384009;19;20161;-77
2023/06/25 10:16:03;;;;;;;7.43;4.43;;;29.50;61.70;;;;;;7386673;19;20564;-77
2023/06/25 10:18:29;;;;;;;5.30;3.85;;;29.80;60.80;;;;;;7386496;19;20458;-76
2023/06/25 10:20:59;;;;;;;5.18;4.35;;;29.80;59.20;;;;;;7386957;19;20544;-78
2023/06/25 10:23:26;;;;;;;6.35;3.83;;;29.70;58.80;;;;;;7388906;19;20152;-78
2023/06/25 10:25:53;;;;;;;4.82;3.97;;;29.60;60.00;;;;;;7386455;19;20635;-75
2023/06/25 10:28:31;;;;;;;5.78;4.38;;;29.60;60.40;;;;;;7394937;19;20134;-78
2023/06/25 10:30:59;;;;;;;5.15;4.65;;;29.40;59.60;;;;;;7394615;19;20155;-78
2023/06/25 10:33:29;;;;;;;5.20;4.40;;;29.20;60.50;;;;;;7390880;19;20178;-79
2023/06/25 10:35:57;;;;;;;6.10;4.70;;;29.10;60.60;;;;;;7393589;19;20151;-79
2023/06/25 10:38:27;;;;;;;6.00;5.28;;;29.00;60.30;;;;;;7393773;19;20130;-78
2023/06/25 10:40:54;;;;;;;6.25;5.05;;;29.00;60.70;;;;;;7391264;19;20468;-78
2023/06/25 10:43:20;;;;;;;5.47;4.75;;;28.90;61.80;;;;;;7392345;19;20129;-79
2023/06/25 10:45:54;;;;;;;6.75;5.00;;;28.90;60.10;;;;;;7393194;19;20579;-79
2023/06/25 10:48:20;;;;;;;6.03;4.95;;;28.90;60.10;;;;;;7392646;19;21048;-79
2023/06/25 10:50:48;;;;;;;5.65;4.45;;;28.90;60.10;;;;;;7391265;19;20142;-78
2023/06/25 10:53:18;;;;;;;5.15;4.35;;;28.80;60.50;;;;;;7395557;19;20131;-79
2023/06/25 10:56:03;;;;;;;5.20;4.20;;;28.90;61.30;;;;;;7392629;19;20610;-78
2023/06/25 10:58:28;;;;;;;5.22;4.22;;;29.00;61.30;;;;;;7400472;19;20522;-78
2023/06/25 11:00:55;;;;;;;5.80;5.07;;;29.20;61.50;;;;;;7400661;19;20149;-79
2023/06/25 11:03:22;;;;;;;6.53;4.80;;;29.20;60.00;;;;;;7398948;19;20617;-79
2023/06/25 11:05:48;;;;;;;5.18;4.25;;;29.20;60.00;;;;;;7396895;19;20680;-79
2023/06/25 11:08:15;;;;;;;5.60;4.90;;;29.20;60.30;;;;;;7400391;19;20218;-76
2023/06/25 11:10:42;;;;;;;6.85;4.80;;;29.10;60.80;;;;;;7398792;19;20149;-79
2023/06/25 11:13:10;;;;;;;5.82;4.88;;;29.20;61.80;;;;;;7400400;19;20614;-79
2023/06/25 11:15:39;;;;;;;6.28;4.97;;;29.40;59.70;;;;;;7395835;19;20194;-79
2023/06/25 11:18:06;;;;;;;6.82;4.63;;;29.40;59.80;;;;;;7393472;19;20462;-79
2023/06/25 11:20:33;;;;;;;5.22;4.65;;;29.30;59.60;;;;;;7394823;19;20146;-78
2023/06/25 11:22:59;;;;;;;5.80;4.68;;;29.30;59.00;;;;;;7392523;19;20123;-77
2023/06/25 11:25:32;;;;;;;5.82;5.22;;;29.30;59.60;;;;;;7382599;19;20179;-75
2023/06/25 11:28:07;;;;;;;5.47;4.63;;;29.30;60.30;;;;;;7388019;19;20909;-77
2023/06/25 11:30:33;;;;;;;7.32;4.63;;;29.40;60.00;;;;;;7388787;19;20481;-77
2023/06/25 11:33:17;;;;;;;5.30;4.30;;;29.50;59.00;;;;;;7388205;19;20151;-78
2023/06/25 11:35:52;;;;;;;6.30;4.78;;;29.60;58.00;;;;;;7390431;19;20612;-78
2023/06/25 11:38:28;;;;;;;5.30;4.38;;;29.60;58.80;;;;;;7390183;19;20468;-75
2023/06/25 11:40:59;;;;;;;6.85;5.13;;;29.60;58.50;;;;;;7389938;19;20175;-75
2023/06/25 11:43:25;;;;;;;5.47;4.53;;;29.70;58.00;;;;;;7391925;19;20218;-79
2023/06/25 11:45:52;;;;;;;5.97;5.00;;;29.80;57.90;;;;;;7387842;19;20147;-77
2023/06/25 11:48:19;;;;;;;5.32;4.55;;;29.90;57.80;;;;;;7394127;19;20130;-75
2023/06/25 11:50:52;;;;;;;7.07;4.65;;;29.90;58.70;;;;;;7390164;19;20306;-77
2023/06/25 11:53:17;;;;;;;10.20;5.20;;;29.70;57.50;;;;;;7393761;19;20127;-77
2023/06/25 11:55:43;;;;;;;5.90;4.80;;;29.70;57.90;;;;;;7390612;19;20129;-75
2023/06/25 11:58:12;;;;;;;5.80;4.72;;;29.70;57.80;;;;;;7393825;19;20610;-76
2023/06/25 12:00:38;;;;;;;5.93;4.78;;;29.80;58.00;;;;;;7393832;19;20594;-77
2023/06/25 12:03:04;;;;;;;5.53;4.57;;;29.90;57.30;;;;;;7390095;19;20123;-76
2023/06/25 12:05:33;;;;;;;6.65;4.85;;;29.90;57.80;;;;;;7389585;19;20175;-77
2023/06/25 12:07:59;;;;;;;5.13;4.50;;;29.80;57.40;;;;;;7390313;19;20150;-76
2023/06/25 12:10:25;;;;;;;6.70;5.38;;;29.80;58.00;;;;;;7390941;19;20234;-77
2023/06/25 12:12:52;;;;;;;5.97;5.15;;;30.10;57.70;;;;;;7390797;19;20651;-76
2023/06/25 12:15:21;;;;;;;6.78;5.60;;;30.20;57.60;;;;;;7390789;19;20721;-78
2023/06/25 12:17:46;;;;;;;5.53;4.93;;;30.30;57.40;;;;;;7393339;19;20766;-76
2023/06/25 12:20:15;;;;;;;6.18;5.10;;;30.10;56.80;;;;;;7389606;19;20214;-77
2023/06/25 12:22:41;;;;;;;5.75;4.80;;;30.10;56.80;;;;;;7391284;19;20150;-76
2023/06/25 12:25:08;;;;;;;5.57;4.97;;;30.10;58.40;;;;;;7389229;19;20527;-76
2023/06/25 12:27:36;;;;;;;6.70;6.00;;;30.20;56.60;;;;;;7390475;19;20123;-77
2023/06/25 12:30:01;;;;;;;6.97;5.00;;;30.30;57.20;;;;;;7391173;19;20139;-77
2023/06/25 12:32:27;;;;;;;5.03;4.40;;;30.30;57.10;;;;;;7392106;19;20450;-77
2023/06/25 12:34:53;;;;;;;8.50;5.47;;;30.40;55.80;;;;;;7390572;19;20150;-77
2023/06/25 12:37:20;;;;;;;5.80;4.75;;;30.40;55.90;;;;;;7392767;19;20130;-77
2023/06/25 12:39:48;;;;;;;5.32;4.60;;;30.50;56.10;;;;;;7388562;19;20169;-76
2023/06/25 12:42:14;;;;;;;5.97;5.03;;;30.20;55.70;;;;;;7389882;19;20126;-77
2023/06/25 12:44:39;;;;;;;6.70;5.22;;;30.30;55.40;;;;;;7390220;19;20491;-76